Stolt Shearwater — ZCRD9 — position and weather

sailwx.info

Track history (hours):
 
Tides and Currents Weather Stations Pressure Air Temp Water Temp Dewpoint Dewpoint Depression Visibility Wind Speed Wind Dir Waves Ship Positions

Stolt Shearwater

Last reported at 2014-Dec-16 20:19 UTC. Time now 2014-Dec-18 17:25 UTC.
Position N 40°55' E 001°40'.

Length 96 m; draft 5.5 m.

Type: Ship. MMSI: 319402000.

Date/timePositionNaut miles runAvg speedWind from/ knotsBaromVisibWave heightAir tempDewpointWater temp
2014-Dec-16 20:19N 40°55' E 001°40'8 9.1
2014-Dec-16 19:24N 40°57' E 001°51'8 8.6
2014-Dec-16 18:30N 41°00' E 002°00'8 6.1
2014-Dec-16 17:11N 41°03' E 002°10'4 6.3
2014-Dec-16 16:33N 41°04' E 002°16'6 6.2
2014-Dec-16 15:32N 41°05' E 002°24'7 6.8
2014-Dec-16 14:29N 41°07' E 002°33'7 6.8
2014-Dec-16 13:27N 41°10' E 002°41'6 6.7
2014-Dec-16 12:31N 41°12' E 002°49'19 9.8
2014-Dec-16 10:32N 41°11' E 003°15'1310.8
2014-Dec-16 09:21N 41°11' E 003°32'1010.3
2014-Dec-16 08:24N 41°11' E 003°45'11 9.3
2014-Dec-16 07:15N 41°11' E 003°59'64 7.2
2014-Dec-15 22:15N 42°11' E 004°29'6 7.6
2014-Dec-15 21:29N 42°17' E 004°30'9 7.4
2014-Dec-15 20:16N 42°26' E 004°31'15 7.2
2014-Dec-15 18:14N 42°40' E 004°38'8 7.3
2014-Dec-15 17:11N 42°47' E 004°42'7 7.9
2014-Dec-15 16:16N 42°53' E 004°47'6 7.6
2014-Dec-15 15:29N 42°58' E 004°50'10 9.0
2014-Dec-15 14:25N 43°06' E 004°57'1011.2
2014-Dec-15 13:33N 43°16' E 004°60'8 8.3
2014-Dec-15 12:33N 43°24' E 005°02'6 4.4
2014-Dec-15 11:12N 43°28' E 005°09'0 0.0
2014-Dec-15 10:30N 43°28' E 005°09'0 0.0
2014-Dec-14 23:07N 43°28' E 005°09'0 0.1
2014-Dec-14 22:33N 43°27' E 005°09'6 6.1
2014-Dec-14 21:34N 43°24' E 005°02'3 3.0
2014-Dec-14 20:33N 43°24' E 004°58'0 0.1
2014-Dec-14 19:34N 43°24' E 004°58'0 0.0
2014-Dec-14 18:34N 43°24' E 004°58'0 0.0
2014-Dec-14 17:34N 43°24' E 004°58'0 0.0
2014-Dec-14 16:34N 43°24' E 004°58'0 0.0
2014-Dec-14 15:33N 43°24' E 004°58'0 0.0
2014-Dec-14 14:33N 43°24' E 004°58'2 2.5
2014-Dec-14 13:33N 43°21' E 004°58'1111.4
2014-Dec-14 12:33N 43°11' E 005°03'2912.1
2014-Dec-14 10:09N 42°48' E 004°39'12711.5
2014-Dec-13 23:08N 41°24' E 002°30'23 0.9
2014-Dec-12 22:12N 41°09' E 002°07'810.8
2014-Dec-12 21:28N 41°02' E 002°02'1010.9
2014-Dec-12 20:33N 40°53' E 001°56'1111.0
2014-Dec-12 19:33N 40°43' E 001°49'1111.2
2014-Dec-12 18:33N 40°33' E 001°43'1110.9
2014-Dec-12 17:33N 40°24' E 001°36'1110.6
2014-Dec-12 16:33N 40°14' E 001°30'1110.5
2014-Dec-12 15:33N 40°05' E 001°23'1110.8
2014-Dec-12 14:34N 39°55' E 001°17'1311.0
2014-Dec-12 13:23N 39°44' E 001°09'16810.6
2014-Dec-11 21:29N 37°22' W 000°46'23210.6
2014-Dec-10 23:33N 35°56' W 005°15'4 3.8
2014-Dec-10 22:32N 35°54' W 005°18'0 0.0
2014-Dec-10 21:32N 35°54' W 005°18'0 0.0
2014-Dec-10 20:32N 35°54' W 005°18'1 0.9
2014-Dec-10 19:33N 35°54' W 005°19'  
Track history (hours):
 
Tides and Currents Weather Stations Pressure Air Temp Water Temp Dewpoint Dewpoint Depression Visibility Wind Speed Wind Dir Waves Ship Positions

Stolt Shearwater

Last reported at 2014-Dec-16 20:19 UTC. Time now 2014-Dec-18 17:25 UTC.
Position N 40°55' E 001°40'.

Length 96 m; draft 5.5 m.

Type: Ship. MMSI: 319402000.

Date/timePositionNaut miles runAvg speedWind from/ knotsBaromVisibWave heightAir tempDewpointWater temp
2014-Dec-16 20:19N 40°55' E 001°40'8 9.1
2014-Dec-16 19:24N 40°57' E 001°51'8 8.6
2014-Dec-16 18:30N 41°00' E 002°00'8 6.1
2014-Dec-16 17:11N 41°03' E 002°10'4 6.3
2014-Dec-16 16:33N 41°04' E 002°16'6 6.2
2014-Dec-16 15:32N 41°05' E 002°24'7 6.8
2014-Dec-16 14:29N 41°07' E 002°33'7 6.8
2014-Dec-16 13:27N 41°10' E 002°41'6 6.7
2014-Dec-16 12:31N 41°12' E 002°49'19 9.8
2014-Dec-16 10:32N 41°11' E 003°15'1310.8
2014-Dec-16 09:21N 41°11' E 003°32'1010.3
2014-Dec-16 08:24N 41°11' E 003°45'11 9.3
2014-Dec-16 07:15N 41°11' E 003°59'64 7.2
2014-Dec-15 22:15N 42°11' E 004°29'6 7.6
2014-Dec-15 21:29N 42°17' E 004°30'9 7.4
2014-Dec-15 20:16N 42°26' E 004°31'15 7.2
2014-Dec-15 18:14N 42°40' E 004°38'8 7.3
2014-Dec-15 17:11N 42°47' E 004°42'7 7.9
2014-Dec-15 16:16N 42°53' E 004°47'6 7.6
2014-Dec-15 15:29N 42°58' E 004°50'10 9.0
2014-Dec-15 14:25N 43°06' E 004°57'1011.2
2014-Dec-15 13:33N 43°16' E 004°60'8 8.3
2014-Dec-15 12:33N 43°24' E 005°02'6 4.4
2014-Dec-15 11:12N 43°28' E 005°09'0 0.0
2014-Dec-15 10:30N 43°28' E 005°09'0 0.0
2014-Dec-14 23:07N 43°28' E 005°09'0 0.1
2014-Dec-14 22:33N 43°27' E 005°09'6 6.1
2014-Dec-14 21:34N 43°24' E 005°02'3 3.0
2014-Dec-14 20:33N 43°24' E 004°58'0 0.1
2014-Dec-14 19:34N 43°24' E 004°58'0 0.0
2014-Dec-14 18:34N 43°24' E 004°58'0 0.0
2014-Dec-14 17:34N 43°24' E 004°58'0 0.0
2014-Dec-14 16:34N 43°24' E 004°58'0 0.0
2014-Dec-14 15:33N 43°24' E 004°58'0 0.0
2014-Dec-14 14:33N 43°24' E 004°58'2 2.5
2014-Dec-14 13:33N 43°21' E 004°58'1111.4
2014-Dec-14 12:33N 43°11' E 005°03'2912.1
2014-Dec-14 10:09N 42°48' E 004°39'12711.5
2014-Dec-13 23:08N 41°24' E 002°30'23 0.9
2014-Dec-12 22:12N 41°09' E 002°07'810.8
2014-Dec-12 21:28N 41°02' E 002°02'1010.9
2014-Dec-12 20:33N 40°53' E 001°56'1111.0
2014-Dec-12 19:33N 40°43' E 001°49'1111.2
2014-Dec-12 18:33N 40°33' E 001°43'1110.9
2014-Dec-12 17:33N 40°24' E 001°36'1110.6
2014-Dec-12 16:33N 40°14' E 001°30'1110.5
2014-Dec-12 15:33N 40°05' E 001°23'1110.8
2014-Dec-12 14:34N 39°55' E 001°17'1311.0
2014-Dec-12 13:23N 39°44' E 001°09'16810.6
2014-Dec-11 21:29N 37°22' W 000°46'23210.6
2014-Dec-10 23:33N 35°56' W 005°15'4 3.8
2014-Dec-10 22:32N 35°54' W 005°18'0 0.0
2014-Dec-10 21:32N 35°54' W 005°18'0 0.0
2014-Dec-10 20:32N 35°54' W 005°18'1 0.9
2014-Dec-10 19:33N 35°54' W 005°19'  

Dump ship's entire track history